Terminal Aerodrome Forecast
Issued by NWS Greer, SC

Home | Current Version | Previous Version | Text Only | Print | Product List | Glossary On
Versions: 1 2 3 4 5 6 7 8 9 10 11 12 13 14 15 16 17 18 19
000
FTUS42 KGSP 260152 AAB
TAFGSP
TAF AMD
KGSP 260152Z 2602/2624 22003KT 4SM BR BKN250
     FM260600 25004KT 2SM BR BKN012
     FM260900 24008KT P6SM BKN250
      TEMPO 2609/2612 5SM SHRA BR BKN030
     FM261700 31004KT P6SM BKN040
     FM262200 36006KT P6SM VCTS BKN027CB=

USA.gov is the U.S. government's official web portal to all federal, state and local government web resources and services.